メインページ
METAR-TAF:

METAR-TAF

空港 :

ダマスカス国際空港

ダマスカス, シリア

緯度: 33-25N, 経度: 036-31E, 海抜: 608m

現時点の気象観測

当レポートは50分前の10:00(UTC)に作成
西/北西の風 12kt
気温 34°C
湿度 12%
気圧 1014 hPa
視程10km以上
1,500メートル以下は雲なし、積乱雲なし

METAR: OSDI 211000Z 29012KT CAVOK 34/01 Q1014

時間: 13:50 (10:50 UTC)

予報

当レポートは12時間50分前の22:00(UTC)に作成
予報は21日の 00時(UTC)から 22日の 06時(UTC)まで有効
南西の風 10kt
視程10km以上
高度3000ftの雲はほとんどない
高度10000ftの雲は散在している

TAF: OSDI 202200Z 2100/2206 22010KT 9999 FEW030 SCT100

4,000以上の空港の気象観測と天気予報(METAR報とTAF報)

利用可能な観測所は地図上に黄色い丸と赤い丸で示す。

丸の上にカーソルを重ねると観測所名を参照できる。

次にクリックすると気象観測と天気予報を参照できる。

マップの切り替え:黒色「×」印の緑ボタンをクリックして拡大、「-」印の緑ボタンをクリックして縮小、緑色の三角印をクリックして隣りの地図に切り替え


METAR-TAF: